sensor_id;sensor_type;location;lat;lon;timestamp;pressure;altitude;pressure_sealevel;temperature;humidity
34081;BME280;20358;50.272;19.026;2023-04-09T00:02:17;98879.06;;;4.11;65.19
34081;BME280;20358;50.272;19.026;2023-04-09T00:05:23;98884.38;;;4.09;64.34
34081;BME280;20358;50.272;19.026;2023-04-09T00:08:32;98878.88;;;4.15;64.83
34081;BME280;20358;50.272;19.026;2023-04-09T00:11:38;98882.19;;;4.20;64.40
34081;BME280;20358;50.272;19.026;2023-04-09T00:14:44;98878.53;;;4.24;64.10
34081;BME280;20358;50.272;19.026;2023-04-09T00:17:50;98888.00;;;4.27;64.10
34081;BME280;20358;50.272;19.026;2023-04-09T00:20:57;98882.03;;;4.23;63.74
34081;BME280;20358;50.272;19.026;2023-04-09T00:24:07;98882.31;;;4.17;64.14
34081;BME280;20358;50.272;19.026;2023-04-09T00:27:12;98879.03;;;4.12;63.50
34081;BME280;20358;50.272;19.026;2023-04-09T00:30:19;98885.22;;;4.10;64.09
34081;BME280;20358;50.272;19.026;2023-04-09T00:33:25;98890.50;;;4.08;64.38
34081;BME280;20358;50.272;19.026;2023-04-09T00:36:31;98889.50;;;4.12;64.01
34081;BME280;20358;50.272;19.026;2023-04-09T00:39:39;98891.06;;;4.16;63.71
34081;BME280;20358;50.272;19.026;2023-04-09T00:42:46;98892.50;;;4.23;63.89
34081;BME280;20358;50.272;19.026;2023-04-09T00:45:52;98901.50;;;4.38;64.51
34081;BME280;20358;50.272;19.026;2023-04-09T00:48:59;98897.63;;;4.47;64.63
34081;BME280;20358;50.272;19.026;2023-04-09T00:52:04;98895.69;;;4.52;64.03
34081;BME280;20358;50.272;19.026;2023-04-09T00:55:15;98894.91;;;4.50;63.92
34081;BME280;20358;50.272;19.026;2023-04-09T00:58:22;98906.16;;;4.52;64.21
34081;BME280;20358;50.272;19.026;2023-04-09T01:01:30;98901.97;;;4.48;63.98
34081;BME280;20358;50.272;19.026;2023-04-09T01:04:37;98900.53;;;4.41;63.71
34081;BME280;20358;50.272;19.026;2023-04-09T01:07:57;98893.91;;;4.32;63.03
34081;BME280;20358;50.272;19.026;2023-04-09T01:11:22;98894.31;;;4.21;62.80
34081;BME280;20358;50.272;19.026;2023-04-09T01:14:44;98886.50;;;4.21;62.29
34081;BME280;20358;50.272;19.026;2023-04-09T01:18:05;98891.94;;;4.15;62.71
34081;BME280;20358;50.272;19.026;2023-04-09T01:21:18;98885.34;;;4.07;63.74
34081;BME280;20358;50.272;19.026;2023-04-09T01:24:38;98886.56;;;3.98;64.17
34081;BME280;20358;50.272;19.026;2023-04-09T01:28:22;98886.94;;;3.89;64.94
34081;BME280;20358;50.272;19.026;2023-04-09T01:31:37;98890.66;;;3.82;64.27
34081;BME280;20358;50.272;19.026;2023-04-09T01:34:46;98899.63;;;3.75;64.33
34081;BME280;20358;50.272;19.026;2023-04-09T01:37:54;98901.47;;;3.73;65.16
34081;BME280;20358;50.272;19.026;2023-04-09T01:41:03;98899.63;;;3.75;64.99
34081;BME280;20358;50.272;19.026;2023-04-09T01:44:13;98894.28;;;3.78;65.13
34081;BME280;20358;50.272;19.026;2023-04-09T01:47:22;98902.06;;;3.80;64.75
34081;BME280;20358;50.272;19.026;2023-04-09T01:50:28;98906.38;;;3.81;64.50
34081;BME280;20358;50.272;19.026;2023-04-09T01:53:35;98920.09;;;3.87;65.30
34081;BME280;20358;50.272;19.026;2023-04-09T01:56:41;98906.13;;;3.88;64.81
34081;BME280;20358;50.272;19.026;2023-04-09T01:59:53;98896.44;;;3.90;65.20
34081;BME280;20358;50.272;19.026;2023-04-09T02:03:07;98892.16;;;3.89;64.52
34081;BME280;20358;50.272;19.026;2023-04-09T02:06:21;98904.28;;;3.90;65.22
34081;BME280;20358;50.272;19.026;2023-04-09T02:09:37;98894.63;;;3.92;64.94
34081;BME280;20358;50.272;19.026;2023-04-09T02:12:49;98902.72;;;3.86;65.23
34081;BME280;20358;50.272;19.026;2023-04-09T02:16:00;98902.72;;;3.86;65.32
34081;BME280;20358;50.272;19.026;2023-04-09T02:19:09;98899.28;;;3.84;65.60
34081;BME280;20358;50.272;19.026;2023-04-09T02:22:15;98892.19;;;3.88;65.81
34081;BME280;20358;50.272;19.026;2023-04-09T02:25:24;98897.25;;;3.92;65.88
34081;BME280;20358;50.272;19.026;2023-04-09T02:28:30;98895.44;;;3.94;66.27
34081;BME280;20358;50.272;19.026;2023-04-09T02:31:40;98902.84;;;4.05;65.68
34081;BME280;20358;50.272;19.026;2023-04-09T02:34:46;98900.91;;;4.10;64.85
34081;BME280;20358;50.272;19.026;2023-04-09T02:37:53;98896.28;;;4.16;65.76
34081;BME280;20358;50.272;19.026;2023-04-09T02:40:59;98900.41;;;4.22;65.25
34081;BME280;20358;50.272;19.026;2023-04-09T02:44:05;98896.94;;;4.21;64.84
34081;BME280;20358;50.272;19.026;2023-04-09T02:47:14;98894.44;;;4.18;64.48
34081;BME280;20358;50.272;19.026;2023-04-09T02:50:21;98899.78;;;4.15;64.58
34081;BME280;20358;50.272;19.026;2023-04-09T02:53:29;98897.50;;;4.08;64.77
34081;BME280;20358;50.272;19.026;2023-04-09T02:56:36;98900.28;;;4.03;65.04
34081;BME280;20358;50.272;19.026;2023-04-09T02:59:41;98901.63;;;3.92;65.05
34081;BME280;20358;50.272;19.026;2023-04-09T03:02:51;98900.22;;;3.82;65.82
34081;BME280;20358;50.272;19.026;2023-04-09T03:05:56;98895.16;;;3.79;65.87
34081;BME280;20358;50.272;19.026;2023-04-09T03:09:03;98895.97;;;3.79;66.29
34081;BME280;20358;50.272;19.026;2023-04-09T03:12:08;98896.13;;;3.76;65.79
34081;BME280;20358;50.272;19.026;2023-04-09T03:15:15;98897.91;;;3.74;66.44
34081;BME280;20358;50.272;19.026;2023-04-09T03:18:24;98895.38;;;3.73;65.99
34081;BME280;20358;50.272;19.026;2023-04-09T03:21:30;98892.94;;;3.68;65.50
34081;BME280;20358;50.272;19.026;2023-04-09T03:24:36;98901.78;;;3.64;65.95
34081;BME280;20358;50.272;19.026;2023-04-09T03:27:42;98904.47;;;3.62;65.97
34081;BME280;20358;50.272;19.026;2023-04-09T03:30:55;98902.81;;;3.60;66.67
34081;BME280;20358;50.272;19.026;2023-04-09T03:34:05;98901.09;;;3.59;66.38
34081;BME280;20358;50.272;19.026;2023-04-09T03:37:11;98902.03;;;3.58;66.84
34081;BME280;20358;50.272;19.026;2023-04-09T03:40:19;98893.16;;;3.62;66.70
34081;BME280;20358;50.272;19.026;2023-04-09T03:43:25;98893.06;;;3.65;67.20
34081;BME280;20358;50.272;19.026;2023-04-09T03:46:32;98891.22;;;3.67;66.51
34081;BME280;20358;50.272;19.026;2023-04-09T03:49:41;98897.00;;;3.75;67.16
34081;BME280;20358;50.272;19.026;2023-04-09T03:52:55;98895.00;;;3.82;66.20
34081;BME280;20358;50.272;19.026;2023-04-09T03:56:02;98893.84;;;3.90;65.91
34081;BME280;20358;50.272;19.026;2023-04-09T03:59:09;98900.53;;;3.97;66.64
34081;BME280;20358;50.272;19.026;2023-04-09T04:02:18;98896.81;;;4.03;65.49
34081;BME280;20358;50.272;19.026;2023-04-09T04:05:36;98896.69;;;4.06;65.98
34081;BME280;20358;50.272;19.026;2023-04-09T04:08:44;98905.41;;;4.06;65.55
34081;BME280;20358;50.272;19.026;2023-04-09T04:11:51;98904.19;;;4.15;65.84
34081;BME280;20358;50.272;19.026;2023-04-09T04:15:01;98883.28;;;4.15;65.74
34081;BME280;20358;50.272;19.026;2023-04-09T04:18:22;98911.78;;;4.43;65.58
34081;BME280;20358;50.272;19.026;2023-04-09T04:21:30;98924.34;;;4.55;65.37
34081;BME280;20358;50.272;19.026;2023-04-09T04:24:37;98912.72;;;4.62;65.52
34081;BME280;20358;50.272;19.026;2023-04-09T04:27:43;98911.47;;;4.70;65.12
34081;BME280;20358;50.272;19.026;2023-04-09T04:30:53;98909.34;;;4.80;64.80
34081;BME280;20358;50.272;19.026;2023-04-09T04:34:00;98907.75;;;4.76;63.95
34081;BME280;20358;50.272;19.026;2023-04-09T04:37:12;98909.63;;;4.72;64.02
34081;BME280;20358;50.272;19.026;2023-04-09T04:40:18;98909.72;;;4.71;64.29
34081;BME280;20358;50.272;19.026;2023-04-09T04:43:31;98914.88;;;4.72;64.08
34081;BME280;20358;50.272;19.026;2023-04-09T04:46:37;98907.19;;;4.69;64.02
34081;BME280;20358;50.272;19.026;2023-04-09T04:49:45;98909.97;;;4.65;63.91
34081;BME280;20358;50.272;19.026;2023-04-09T04:52:54;98906.56;;;4.63;64.25
34081;BME280;20358;50.272;19.026;2023-04-09T04:56:05;98906.31;;;4.69;64.17
34081;BME280;20358;50.272;19.026;2023-04-09T04:59:12;98906.00;;;4.76;64.37
34081;BME280;20358;50.272;19.026;2023-04-09T05:02:30;98919.66;;;4.83;64.10
34081;BME280;20358;50.272;19.026;2023-04-09T05:05:55;98911.63;;;4.87;63.74
34081;BME280;20358;50.272;19.026;2023-04-09T05:09:12;98912.34;;;4.91;64.10
34081;BME280;20358;50.272;19.026;2023-04-09T05:12:33;98922.66;;;4.94;63.32
34081;BME280;20358;50.272;19.026;2023-04-09T05:15:40;98918.41;;;4.91;63.12
34081;BME280;20358;50.272;19.026;2023-04-09T05:18:47;98928.16;;;4.88;63.22
34081;BME280;20358;50.272;19.026;2023-04-09T05:21:54;98928.44;;;4.82;63.44
34081;BME280;20358;50.272;19.026;2023-04-09T05:25:02;98920.72;;;4.79;63.37
34081;BME280;20358;50.272;19.026;2023-04-09T05:28:13;98916.38;;;4.78;63.86
34081;BME280;20358;50.272;19.026;2023-04-09T05:31:20;98932.09;;;4.78;63.34
34081;BME280;20358;50.272;19.026;2023-04-09T05:34:31;98929.47;;;4.78;63.63
34081;BME280;20358;50.272;19.026;2023-04-09T05:37:38;98927.97;;;4.93;64.14
34081;BME280;20358;50.272;19.026;2023-04-09T05:40:49;98936.16;;;5.05;63.65
34081;BME280;20358;50.272;19.026;2023-04-09T05:43:55;98932.97;;;5.19;63.65
34081;BME280;20358;50.272;19.026;2023-04-09T05:47:04;98949.09;;;5.28;63.48
34081;BME280;20358;50.272;19.026;2023-04-09T05:50:18;98938.38;;;5.34;63.41
34081;BME280;20358;50.272;19.026;2023-04-09T05:53:27;98943.44;;;5.37;63.36
34081;BME280;20358;50.272;19.026;2023-04-09T05:56:36;98942.44;;;5.41;63.70
34081;BME280;20358;50.272;19.026;2023-04-09T05:59:42;98945.50;;;5.51;63.78
34081;BME280;20358;50.272;19.026;2023-04-09T06:02:49;98949.75;;;5.53;63.24
34081;BME280;20358;50.272;19.026;2023-04-09T06:05:56;98939.56;;;5.47;62.61
34081;BME280;20358;50.272;19.026;2023-04-09T06:09:02;98947.44;;;5.47;62.10
34081;BME280;20358;50.272;19.026;2023-04-09T06:12:15;98948.34;;;5.46;62.19
34081;BME280;20358;50.272;19.026;2023-04-09T06:15:20;98951.72;;;5.48;62.20
34081;BME280;20358;50.272;19.026;2023-04-09T06:18:29;98953.34;;;5.51;62.74
34081;BME280;20358;50.272;19.026;2023-04-09T06:21:35;98955.28;;;5.47;62.80
34081;BME280;20358;50.272;19.026;2023-04-09T06:24:42;98954.84;;;5.57;62.77
34081;BME280;20358;50.272;19.026;2023-04-09T06:27:51;98962.44;;;5.63;62.74
34081;BME280;20358;50.272;19.026;2023-04-09T06:30:57;98953.47;;;5.68;62.89
34081;BME280;20358;50.272;19.026;2023-04-09T06:34:03;98960.13;;;5.75;62.36
34081;BME280;20358;50.272;19.026;2023-04-09T06:37:10;98954.75;;;5.78;61.74
34081;BME280;20358;50.272;19.026;2023-04-09T06:40:15;98957.28;;;5.80;62.04
34081;BME280;20358;50.272;19.026;2023-04-09T06:43:27;98967.63;;;5.83;62.47
34081;BME280;20358;50.272;19.026;2023-04-09T06:46:33;98966.38;;;5.91;61.83
34081;BME280;20358;50.272;19.026;2023-04-09T06:49:40;98972.44;;;5.92;62.31
34081;BME280;20358;50.272;19.026;2023-04-09T06:52:45;98974.03;;;5.96;62.45
34081;BME280;20358;50.272;19.026;2023-04-09T06:55:52;98974.16;;;5.93;62.43
34081;BME280;20358;50.272;19.026;2023-04-09T06:59:01;98974.88;;;5.96;61.75
34081;BME280;20358;50.272;19.026;2023-04-09T07:02:07;98973.88;;;5.99;62.57
34081;BME280;20358;50.272;19.026;2023-04-09T07:05:13;98983.06;;;6.07;62.59
34081;BME280;20358;50.272;19.026;2023-04-09T07:08:20;98971.31;;;6.16;62.23
34081;BME280;20358;50.272;19.026;2023-04-09T07:11:26;98979.47;;;6.29;61.91
34081;BME280;20358;50.272;19.026;2023-04-09T07:14:37;98988.28;;;6.28;61.84
34081;BME280;20358;50.272;19.026;2023-04-09T07:17:43;98993.72;;;6.23;61.88
34081;BME280;20358;50.272;19.026;2023-04-09T07:20:51;98982.81;;;6.32;62.68
34081;BME280;20358;50.272;19.026;2023-04-09T07:23:57;98977.28;;;6.38;62.00
34081;BME280;20358;50.272;19.026;2023-04-09T07:27:03;98987.03;;;6.53;61.45
34081;BME280;20358;50.272;19.026;2023-04-09T07:30:12;98983.94;;;6.62;61.77
34081;BME280;20358;50.272;19.026;2023-04-09T07:33:19;98992.25;;;6.72;62.16
34081;BME280;20358;50.272;19.026;2023-04-09T07:36:24;98983.06;;;6.81;61.70
34081;BME280;20358;50.272;19.026;2023-04-09T07:39:32;98997.63;;;6.88;60.31
34081;BME280;20358;50.272;19.026;2023-04-09T07:42:38;98982.78;;;6.87;61.46
34081;BME280;20358;50.272;19.026;2023-04-09T07:45:50;98992.06;;;6.94;61.09
34081;BME280;20358;50.272;19.026;2023-04-09T07:48:55;98988.19;;;7.01;61.12
34081;BME280;20358;50.272;19.026;2023-04-09T07:52:02;98985.56;;;7.01;60.55
34081;BME280;20358;50.272;19.026;2023-04-09T07:55:09;98990.50;;;6.90;59.35
34081;BME280;20358;50.272;19.026;2023-04-09T07:58:15;98998.53;;;6.87;60.12
34081;BME280;20358;50.272;19.026;2023-04-09T08:01:24;98989.91;;;6.85;59.67
34081;BME280;20358;50.272;19.026;2023-04-09T08:04:30;98990.50;;;6.90;60.30
34081;BME280;20358;50.272;19.026;2023-04-09T08:07:36;98986.88;;;6.92;60.00
34081;BME280;20358;50.272;19.026;2023-04-09T08:10:42;98990.38;;;6.93;60.15
34081;BME280;20358;50.272;19.026;2023-04-09T08:13:48;99000.53;;;6.99;60.19
34081;BME280;20358;50.272;19.026;2023-04-09T08:16:58;99005.94;;;6.96;60.54
34081;BME280;20358;50.272;19.026;2023-04-09T08:20:05;99006.13;;;6.93;60.80
34081;BME280;20358;50.272;19.026;2023-04-09T08:23:12;99002.88;;;6.88;60.86
34081;BME280;20358;50.272;19.026;2023-04-09T08:26:18;99005.31;;;6.91;60.42
34081;BME280;20358;50.272;19.026;2023-04-09T08:29:26;99009.81;;;6.89;61.40
34081;BME280;20358;50.272;19.026;2023-04-09T08:32:35;99011.38;;;6.93;60.94
34081;BME280;20358;50.272;19.026;2023-04-09T08:35:42;99013.06;;;6.94;61.04
34081;BME280;20358;50.272;19.026;2023-04-09T08:38:47;99010.44;;;6.94;61.23
34081;BME280;20358;50.272;19.026;2023-04-09T08:41:57;99014.44;;;7.01;60.91
34081;BME280;20358;50.272;19.026;2023-04-09T08:45:04;99012.28;;;7.09;61.65
34081;BME280;20358;50.272;19.026;2023-04-09T08:48:15;99015.38;;;7.17;61.35
34081;BME280;20358;50.272;19.026;2023-04-09T08:51:23;99012.22;;;7.27;61.33
34081;BME280;20358;50.272;19.026;2023-04-09T08:54:30;99019.03;;;7.31;61.13
34081;BME280;20358;50.272;19.026;2023-04-09T08:57:37;99012.78;;;7.34;60.17
34081;BME280;20358;50.272;19.026;2023-04-09T09:00:50;99021.88;;;7.27;59.77
34081;BME280;20358;50.272;19.026;2023-04-09T09:04:03;99016.63;;;7.27;59.60
34081;BME280;20358;50.272;19.026;2023-04-09T09:07:11;99017.25;;;7.32;60.66
34081;BME280;20358;50.272;19.026;2023-04-09T09:10:17;99009.19;;;7.35;60.22
34081;BME280;20358;50.272;19.026;2023-04-09T09:13:26;99015.22;;;7.37;60.45
34081;BME280;20358;50.272;19.026;2023-04-09T09:16:33;99016.16;;;7.36;59.23
34081;BME280;20358;50.272;19.026;2023-04-09T09:19:44;99009.19;;;7.35;60.06
34081;BME280;20358;50.272;19.026;2023-04-09T09:22:52;99017.69;;;7.40;59.65
34081;BME280;20358;50.272;19.026;2023-04-09T09:26:10;99010.72;;;7.56;59.62
34081;BME280;20358;50.272;19.026;2023-04-09T09:29:17;99017.59;;;7.59;58.09
34081;BME280;20358;50.272;19.026;2023-04-09T09:32:24;99016.25;;;7.52;58.82
34081;BME280;20358;50.272;19.026;2023-04-09T09:35:45;99016.53;;;7.46;59.14
34081;BME280;20358;50.272;19.026;2023-04-09T09:38:56;99021.25;;;7.56;59.92
34081;BME280;20358;50.272;19.026;2023-04-09T09:42:06;99018.16;;;7.65;58.82
34081;BME280;20358;50.272;19.026;2023-04-09T09:45:17;99028.47;;;7.68;59.15
34081;BME280;20358;50.272;19.026;2023-04-09T09:48:23;99023.22;;;7.68;59.43
34081;BME280;20358;50.272;19.026;2023-04-09T09:51:36;99019.59;;;7.71;57.90
34081;BME280;20358;50.272;19.026;2023-04-09T09:54:47;99015.78;;;7.76;58.62
34081;BME280;20358;50.272;19.026;2023-04-09T09:58:01;99019.03;;;7.81;58.54
34081;BME280;20358;50.272;19.026;2023-04-09T10:01:16;99010.06;;;7.85;58.64
34081;BME280;20358;50.272;19.026;2023-04-09T10:04:28;99013.34;;;7.89;58.07
34081;BME280;20358;50.272;19.026;2023-04-09T10:07:41;99012.97;;;7.96;57.61
34081;BME280;20358;50.272;19.026;2023-04-09T10:10:49;99011.44;;;7.92;58.46
34081;BME280;20358;50.272;19.026;2023-04-09T10:13:57;99006.88;;;7.96;58.35
34081;BME280;20358;50.272;19.026;2023-04-09T10:17:04;99007.09;;;8.09;57.53
34081;BME280;20358;50.272;19.026;2023-04-09T10:20:14;99003.94;;;8.18;56.79
34081;BME280;20358;50.272;19.026;2023-04-09T10:23:39;99005.38;;;8.23;56.68
34081;BME280;20358;50.272;19.026;2023-04-09T10:26:47;99003.53;;;8.41;57.23
34081;BME280;20358;50.272;19.026;2023-04-09T10:29:54;98999.28;;;8.54;56.60
34081;BME280;20358;50.272;19.026;2023-04-09T10:33:09;98998.84;;;8.61;54.86
34081;BME280;20358;50.272;19.026;2023-04-09T10:36:18;98990.88;;;8.63;54.91
34081;BME280;20358;50.272;19.026;2023-04-09T10:39:30;98992.31;;;8.69;55.54
34081;BME280;20358;50.272;19.026;2023-04-09T10:42:38;98992.81;;;8.75;55.34
34081;BME280;20358;50.272;19.026;2023-04-09T10:45:47;98986.69;;;8.75;55.14
34081;BME280;20358;50.272;19.026;2023-04-09T10:49:15;98990.41;;;8.86;54.76
34081;BME280;20358;50.272;19.026;2023-04-09T10:52:28;98986.47;;;8.93;55.20
34081;BME280;20358;50.272;19.026;2023-04-09T10:55:41;98993.47;;;8.94;53.73
34081;BME280;20358;50.272;19.026;2023-04-09T10:58:52;98987.44;;;8.92;53.83
34081;BME280;20358;50.272;19.026;2023-04-09T11:01:58;98982.75;;;8.97;55.25
34081;BME280;20358;50.272;19.026;2023-04-09T11:05:17;98989.56;;;8.86;53.89
34081;BME280;20358;50.272;19.026;2023-04-09T11:08:37;98990.41;;;8.86;54.12
34081;BME280;20358;50.272;19.026;2023-04-09T11:11:51;98985.19;;;9.00;54.81
34081;BME280;20358;50.272;19.026;2023-04-09T11:14:59;98985.78;;;9.05;53.11
34081;BME280;20358;50.272;19.026;2023-04-09T11:18:05;98987.63;;;9.19;53.33
34081;BME280;20358;50.272;19.026;2023-04-09T11:21:12;98979.81;;;9.17;53.73
34081;BME280;20358;50.272;19.026;2023-04-09T11:24:18;98982.47;;;9.17;53.29
34081;BME280;20358;50.272;19.026;2023-04-09T11:27:27;98989.34;;;9.20;53.30
34081;BME280;20358;50.272;19.026;2023-04-09T11:30:33;98984.38;;;9.14;53.44
34081;BME280;20358;50.272;19.026;2023-04-09T11:33:40;98984.91;;;9.20;53.49
34081;BME280;20358;50.272;19.026;2023-04-09T11:36:49;98977.03;;;9.35;54.65
34081;BME280;20358;50.272;19.026;2023-04-09T11:39:56;98979.88;;;9.46;54.05
34081;BME280;20358;50.272;19.026;2023-04-09T11:43:07;98984.97;;;9.49;52.35
34081;BME280;20358;50.272;19.026;2023-04-09T11:46:13;98981.75;;;9.44;52.74
34081;BME280;20358;50.272;19.026;2023-04-09T11:49:20;98984.41;;;9.58;53.00
34081;BME280;20358;50.272;19.026;2023-04-09T11:52:27;98977.06;;;9.63;52.08
34081;BME280;20358;50.272;19.026;2023-04-09T11:55:36;98979.91;;;9.74;52.36
34081;BME280;20358;50.272;19.026;2023-04-09T11:58:47;98980.28;;;9.96;52.23
34081;BME280;20358;50.272;19.026;2023-04-09T12:01:56;98981.41;;;10.06;51.52
34081;BME280;20358;50.272;19.026;2023-04-09T12:05:04;98984.88;;;10.07;50.15
34081;BME280;20358;50.272;19.026;2023-04-09T12:08:11;98978.84;;;10.05;50.27
34081;BME280;20358;50.272;19.026;2023-04-09T12:11:19;98974.41;;;10.05;50.64
34081;BME280;20358;50.272;19.026;2023-04-09T12:14:27;98978.75;;;9.92;50.41
34081;BME280;20358;50.272;19.026;2023-04-09T12:17:34;98986.13;;;9.87;49.46
34081;BME280;20358;50.272;19.026;2023-04-09T12:20:41;98980.66;;;9.90;49.62
34081;BME280;20358;50.272;19.026;2023-04-09T12:23:49;98984.97;;;10.05;49.75
34081;BME280;20358;50.272;19.026;2023-04-09T12:26:55;98982.53;;;10.16;48.95
34081;BME280;20358;50.272;19.026;2023-04-09T12:30:06;98974.09;;;10.38;48.56
34081;BME280;20358;50.272;19.026;2023-04-09T12:33:12;98975.16;;;10.62;48.57
34081;BME280;20358;50.272;19.026;2023-04-09T12:36:19;98965.53;;;10.88;48.79
34081;BME280;20358;50.272;19.026;2023-04-09T12:39:25;98972.19;;;11.20;47.63
34081;BME280;20358;50.272;19.026;2023-04-09T12:42:31;98971.38;;;11.45;47.08
34081;BME280;20358;50.272;19.026;2023-04-09T12:45:39;98962.50;;;11.58;47.19
34081;BME280;20358;50.272;19.026;2023-04-09T12:48:46;98959.31;;;11.79;45.88
34081;BME280;20358;50.272;19.026;2023-04-09T12:51:51;98962.38;;;11.98;45.33
34081;BME280;20358;50.272;19.026;2023-04-09T12:54:58;98961.50;;;12.10;45.00
34081;BME280;20358;50.272;19.026;2023-04-09T12:58:04;98955.38;;;12.22;44.76
34081;BME280;20358;50.272;19.026;2023-04-09T13:01:13;98947.44;;;12.22;44.05
34081;BME280;20358;50.272;19.026;2023-04-09T13:04:19;98947.66;;;12.06;43.08
34081;BME280;20358;50.272;19.026;2023-04-09T13:07:25;98941.41;;;11.95;42.91
34081;BME280;20358;50.272;19.026;2023-04-09T13:10:32;98946.09;;;11.79;42.84
34081;BME280;20358;50.272;19.026;2023-04-09T13:13:39;98940.47;;;11.71;42.71
34081;BME280;20358;50.272;19.026;2023-04-09T13:16:48;98940.16;;;11.62;43.28
34081;BME280;20358;50.272;19.026;2023-04-09T13:19:54;98943.47;;;11.53;43.74
34081;BME280;20358;50.272;19.026;2023-04-09T13:23:00;98946.84;;;11.43;43.81
34081;BME280;20358;50.272;19.026;2023-04-09T13:26:07;98951.94;;;11.33;44.35
34081;BME280;20358;50.272;19.026;2023-04-09T13:29:12;98945.78;;;11.33;43.36
34081;BME280;20358;50.272;19.026;2023-04-09T13:32:22;98954.03;;;11.28;44.33
34081;BME280;20358;50.272;19.026;2023-04-09T13:35:29;98954.31;;;11.24;43.94
34081;BME280;20358;50.272;19.026;2023-04-09T13:38:35;98954.19;;;11.13;43.87
34081;BME280;20358;50.272;19.026;2023-04-09T13:41:41;98956.16;;;10.96;43.84
34081;BME280;20358;50.272;19.026;2023-04-09T13:44:48;98961.81;;;10.78;46.03
34081;BME280;20358;50.272;19.026;2023-04-09T13:47:56;98962.03;;;10.48;46.86
34081;BME280;20358;50.272;19.026;2023-04-09T13:51:03;98963.66;;;10.22;49.42
34081;BME280;20358;50.272;19.026;2023-04-09T13:54:09;98973.66;;;9.89;45.00
34081;BME280;20358;50.272;19.026;2023-04-09T13:57:16;98970.09;;;9.62;46.90
34081;BME280;20358;50.272;19.026;2023-04-09T14:00:21;98967.44;;;9.48;47.59
34081;BME280;20358;50.272;19.026;2023-04-09T14:03:31;98971.56;;;9.38;47.56
34081;BME280;20358;50.272;19.026;2023-04-09T14:06:37;98964.59;;;9.22;46.64
34081;BME280;20358;50.272;19.026;2023-04-09T14:09:44;98961.13;;;9.06;49.46
34081;BME280;20358;50.272;19.026;2023-04-09T14:12:50;98964.38;;;8.96;48.94
34081;BME280;20358;50.272;19.026;2023-04-09T14:15:56;98923.34;;;8.62;48.00
34081;BME280;20358;50.272;19.026;2023-04-09T14:19:04;98959.69;;;8.71;49.60
34081;BME280;20358;50.272;19.026;2023-04-09T14:22:12;98952.69;;;8.56;50.54
34081;BME280;20358;50.272;19.026;2023-04-09T14:25:17;98947.00;;;8.48;50.32
34081;BME280;20358;50.272;19.026;2023-04-09T14:28:24;98949.03;;;8.43;51.46
34081;BME280;20358;50.272;19.026;2023-04-09T14:31:29;98944.44;;;8.31;52.43
34081;BME280;20358;50.272;19.026;2023-04-09T14:34:39;98950.50;;;8.17;52.43
34081;BME280;20358;50.272;19.026;2023-04-09T14:37:44;98936.97;;;8.08;53.36
34081;BME280;20358;50.272;19.026;2023-04-09T14:40:51;98931.06;;;8.04;53.38
34081;BME280;20358;50.272;19.026;2023-04-09T14:43:56;98934.72;;;8.02;53.24
34081;BME280;20358;50.272;19.026;2023-04-09T14:47:03;98932.06;;;8.02;52.55
34081;BME280;20358;50.272;19.026;2023-04-09T14:50:11;98932.06;;;8.02;52.11
34081;BME280;20358;50.272;19.026;2023-04-09T14:53:18;98931.97;;;8.03;53.43
34081;BME280;20358;50.272;19.026;2023-04-09T14:56:23;98924.59;;;8.10;53.46
34081;BME280;20358;50.272;19.026;2023-04-09T14:59:30;98922.97;;;8.07;53.42
34081;BME280;20358;50.272;19.026;2023-04-09T15:02:36;98928.59;;;8.01;53.79
34081;BME280;20358;50.272;19.026;2023-04-09T15:05:46;98931.88;;;8.05;54.18
34081;BME280;20358;50.272;19.026;2023-04-09T15:08:52;98922.22;;;8.05;54.27
34081;BME280;20358;50.272;19.026;2023-04-09T15:11:59;98928.50;;;8.03;54.40
34081;BME280;20358;50.272;19.026;2023-04-09T15:15:05;98916.94;;;8.05;55.64
34081;BME280;20358;50.272;19.026;2023-04-09T15:18:13;98912.38;;;8.09;55.82
34081;BME280;20358;50.272;19.026;2023-04-09T15:21:24;98923.50;;;8.14;55.41
34081;BME280;20358;50.272;19.026;2023-04-09T15:24:30;98917.47;;;8.12;55.08
34081;BME280;20358;50.272;19.026;2023-04-09T15:27:36;98918.25;;;8.14;55.63
34081;BME280;20358;50.272;19.026;2023-04-09T15:30:43;98920.69;;;8.17;54.72
34081;BME280;20358;50.272;19.026;2023-04-09T15:33:48;98929.69;;;8.13;55.11
34081;BME280;20358;50.272;19.026;2023-04-09T15:36:57;98921.19;;;8.08;53.64
34081;BME280;20358;50.272;19.026;2023-04-09T15:40:03;98921.72;;;8.14;54.17
34081;BME280;20358;50.272;19.026;2023-04-09T15:43:10;98922.72;;;8.27;55.18
34081;BME280;20358;50.272;19.026;2023-04-09T15:46:16;98933.75;;;8.34;54.27
34081;BME280;20358;50.272;19.026;2023-04-09T15:49:23;98940.56;;;8.38;54.48
34081;BME280;20358;50.272;19.026;2023-04-09T15:52:31;98936.31;;;8.35;54.44
34081;BME280;20358;50.272;19.026;2023-04-09T15:55:38;98932.25;;;8.30;53.50
34081;BME280;20358;50.272;19.026;2023-04-09T15:58:44;98936.13;;;8.23;54.51
34081;BME280;20358;50.272;19.026;2023-04-09T16:01:51;98944.81;;;8.09;53.32
34081;BME280;20358;50.272;19.026;2023-04-09T16:04:56;98947.66;;;8.05;54.06
34081;BME280;20358;50.272;19.026;2023-04-09T16:08:06;98944.97;;;8.06;54.55
34081;BME280;20358;50.272;19.026;2023-04-09T16:11:12;98948.19;;;8.11;55.53
34081;BME280;20358;50.272;19.026;2023-04-09T16:14:19;98946.00;;;8.19;53.95
34081;BME280;20358;50.272;19.026;2023-04-09T16:17:25;98940.91;;;8.16;54.22
34081;BME280;20358;50.272;19.026;2023-04-09T16:20:32;98941.38;;;8.23;55.51
34081;BME280;20358;50.272;19.026;2023-04-09T16:23:40;98942.59;;;8.33;55.38
34081;BME280;20358;50.272;19.026;2023-04-09T16:26:47;98954.38;;;8.41;55.37
34081;BME280;20358;50.272;19.026;2023-04-09T16:29:53;98952.75;;;8.39;53.60
34081;BME280;20358;50.272;19.026;2023-04-09T16:32:59;98943.78;;;8.27;54.69
34081;BME280;20358;50.272;19.026;2023-04-09T16:36:05;98950.41;;;8.19;55.15
34081;BME280;20358;50.272;19.026;2023-04-09T16:39:15;98948.25;;;8.10;55.52